Time;durP1;ratioP1;P1;durP2;ratioP2;P2;SDS_P1;SDS_P2;PMS_P1;PMS_P2;Temp;Humidity;BMP_temperature;BMP_pressure;BME280_temperature;BME280_humidity;BME280_pressure;Samples;Min_cycle;Max_cycle;Signal;HPM_P1;HPM_P2
2022/10/18 00:00:52;;;;;;;8.02;4.38;;;;;;;17.26;nan;100369.88;4618801;28;10001644;-78
2022/10/18 00:03:17;;;;;;;7.90;3.93;;;;;;;17.28;nan;100372.38;4962809;28;20208;-78
2022/10/18 00:05:43;;;;;;;5.13;3.53;;;;;;;17.27;nan;100366.22;4963658;28;20201;-82
2022/10/18 00:08:08;;;;;;;4.37;3.27;;;;;;;17.28;nan;100359.09;4959797;28;20253;-82
2022/10/18 00:10:34;;;;;;;5.40;3.60;;;;;;;17.27;nan;100355.59;4961854;28;20205;-82
2022/10/18 00:12:59;;;;;;;4.97;3.03;;;;;;;17.27;nan;100357.44;4959373;28;20883;-80
2022/10/18 00:15:24;;;;;;;4.10;2.73;;;;;;;17.25;nan;100358.41;4959112;28;20270;-82
2022/10/18 00:17:50;;;;;;;6.97;3.60;;;;;;;17.22;nan;100355.97;4957432;28;20225;-81
2022/10/18 00:20:15;;;;;;;6.90;3.70;;;;;;;17.23;nan;100365.63;4951007;28;20236;-80
2022/10/18 00:22:41;;;;;;;5.90;3.90;;;;;;;17.23;nan;100362.16;4964520;28;20205;-81
2022/10/18 00:25:08;;;;;;;7.37;4.30;;;;;;;17.16;nan;100353.81;4961779;28;20191;-81
2022/10/18 00:27:33;;;;;;;4.63;3.05;;;;;;;17.14;nan;100361.03;4959267;28;20191;-82
2022/10/18 00:29:59;;;;;;;6.57;2.93;;;;;;;17.14;nan;100368.16;4957650;28;20190;-80
2022/10/18 00:32:25;;;;;;;6.60;2.73;;;;;;;17.15;nan;100361.91;4958528;28;20206;-81
2022/10/18 00:34:50;;;;;;;6.80;3.00;;;;;;;17.16;nan;100363.59;4959361;28;20198;-82
2022/10/18 00:37:16;;;;;;;4.47;3.10;;;;;;;17.14;nan;100369.00;4961564;28;20206;-81
2022/10/18 00:39:42;;;;;;;8.23;3.30;;;;;;;17.14;nan;100371.66;4960263;28;20186;-80
2022/10/18 00:42:17;;;;;;;4.63;2.90;;;;;;;17.10;nan;100358.78;4957192;28;20450;-82
2022/10/18 00:44:42;;;;;;;7.55;3.38;;;;;;;17.10;nan;100364.91;4958955;28;20251;-82
2022/10/18 00:47:10;;;;;;;6.27;3.40;;;;;;;17.07;nan;100361.66;4960733;28;20273;-81
2022/10/18 00:49:42;;;;;;;7.53;3.15;;;;;;;17.00;nan;100359.47;4956238;28;20184;-79
2022/10/18 00:52:40;;;;;;;5.60;3.67;;;;;;;17.01;nan;100361.19;4955220;28;20444;-80
2022/10/18 00:55:06;;;;;;;6.85;2.97;;;;;;;17.03;nan;100369.00;4937722;28;20202;-82
2022/10/18 00:57:32;;;;;;;3.05;2.55;;;;;;;17.03;nan;100364.53;4960077;28;20210;-80
2022/10/18 00:59:58;;;;;;;3.80;3.00;;;;;;;17.05;nan;100368.91;4955320;28;20560;-82
2022/10/18 01:02:25;;;;;;;5.20;3.10;;;;;;;17.05;nan;100368.91;4956329;28;20457;-82
2022/10/18 01:04:50;;;;;;;10.93;4.45;;;;;;;17.03;nan;100358.41;4959209;28;20717;-80
2022/10/18 01:07:33;;;;;;;4.97;3.70;;;;;;;17.02;nan;100362.88;4961223;28;20404;-80
2022/10/18 01:10:07;;;;;;;5.03;3.38;;;;;;;17.00;nan;100364.78;4958383;28;20649;-82
2022/10/18 01:13:05;;;;;;;5.00;2.65;;;;;;;16.96;nan;100371.31;4961890;28;20575;-82
2022/10/18 01:15:54;;;;;;;4.43;2.90;;;;;;;16.93;nan;100366.25;4961199;28;20756;-81
2022/10/18 01:18:26;;;;;;;3.75;2.65;;;;;;;16.91;nan;100370.00;4960072;28;20826;-80
2022/10/18 01:21:00;;;;;;;5.20;2.83;;;;;;;16.89;nan;100369.25;4959472;28;20282;-82
2022/10/18 01:24:03;;;;;;;4.70;2.85;;;;;;;16.89;nan;100366.59;4958707;28;20215;-81
2022/10/18 01:26:57;;;;;;;3.90;2.67;;;;;;;16.84;nan;100369.59;4959984;28;20192;-80
2022/10/18 01:29:42;;;;;;;5.32;3.20;;;;;;;16.80;nan;100363.69;4959958;28;20486;-82
2022/10/18 01:32:15;;;;;;;7.65;3.13;;;;;;;16.78;nan;100356.81;4956405;28;20208;-80
2022/10/18 01:34:44;;;;;;;6.10;4.07;;;;;;;16.77;nan;100363.94;4959360;28;20604;-81
2022/10/18 01:37:15;;;;;;;7.45;3.10;;;;;;;16.74;nan;100358.84;4957571;28;20649;-80
2022/10/18 01:39:44;;;;;;;6.45;3.83;;;;;;;16.73;nan;100357.13;4955651;28;20247;-81
2022/10/18 01:42:12;;;;;;;4.45;2.97;;;;;;;16.73;nan;100362.44;4945769;28;20479;-78
2022/10/18 01:44:40;;;;;;;7.15;3.10;;;;;;;16.75;nan;100365.00;4960775;28;20575;-81
2022/10/18 01:47:09;;;;;;;6.45;3.33;;;;;;;16.72;nan;100371.38;4962264;28;20251;-80
2022/10/18 01:49:35;;;;;;;4.63;3.53;;;;;;;16.71;nan;100369.66;4958092;28;20232;-81
2022/10/18 01:52:00;;;;;;;5.17;3.50;;;;;;;16.69;nan;100368.97;4956118;28;20291;-80
2022/10/18 01:54:33;;;;;;;4.57;3.03;;;;;;;16.69;nan;100365.44;4960038;28;20304;-79
2022/10/18 01:57:38;;;;;;;4.25;2.70;;;;;;;16.66;nan;100368.34;4959321;28;20217;-79
2022/10/18 02:00:12;;;;;;;15.65;3.70;;;;;;;16.66;nan;100363.03;4957225;28;20943;-80
2022/10/18 02:02:54;;;;;;;4.45;2.50;;;;;;;16.62;nan;100354.47;4958767;28;20223;-80
2022/10/18 02:05:41;;;;;;;6.07;4.47;;;;;;;16.60;nan;100362.53;4961249;28;20208;-81
2022/10/18 02:08:37;;;;;;;4.38;3.10;;;;;;;16.54;nan;100360.34;4960270;28;20207;-80
2022/10/18 02:11:05;;;;;;;5.65;3.35;;;;;;;16.49;nan;100348.41;4959032;28;20535;-81
2022/10/18 02:13:56;;;;;;;5.70;3.50;;;;;;;16.47;nan;100377.72;4961682;28;20308;-80
2022/10/18 02:16:24;;;;;;;5.05;3.50;;;;;;;16.45;nan;100370.84;4959074;28;20802;-80
2022/10/18 02:19:21;;;;;;;5.45;3.33;;;;;;;16.44;nan;100377.09;4958059;28;20240;-79
2022/10/18 02:21:48;;;;;;;7.93;3.85;;;;;;;16.45;nan;100365.53;4950548;28;20224;-79
2022/10/18 02:24:15;;;;;;;5.70;3.05;;;;;;;16.47;nan;100361.81;4955443;28;20199;-80
2022/10/18 02:26:40;;;;;;;6.13;3.33;;;;;;;16.45;nan;100370.84;4959678;28;20200;-81
2022/10/18 02:29:07;;;;;;;8.47;3.57;;;;;;;16.43;nan;100370.09;4959434;28;20185;-79
2022/10/18 02:31:44;;;;;;;6.28;3.85;;;;;;;16.40;nan;100370.34;4959902;28;20192;-81
2022/10/18 02:34:19;;;;;;;4.40;2.95;;;;;;;16.39;nan;100364.19;4957615;28;20188;-81
2022/10/18 02:36:49;;;;;;;5.05;2.95;;;;;;;16.35;nan;100375.97;4959920;28;20208;-80
2022/10/18 02:39:18;;;;;;;15.18;3.75;;;;;;;16.28;nan;100361.50;4961306;28;20562;-80
2022/10/18 02:41:44;;;;;;;4.57;3.00;;;;;;;16.28;nan;100359.72;4957911;28;20556;-80
2022/10/18 02:44:10;;;;;;;4.73;3.70;;;;;;;16.29;nan;100361.38;4959344;28;20192;-80
2022/10/18 02:46:35;;;;;;;6.50;4.57;;;;;;;16.34;nan;100371.66;4958597;28;20190;-81
2022/10/18 02:49:01;;;;;;;6.77;3.67;;;;;;;16.37;nan;100374.91;4952957;28;20474;-81
2022/10/18 02:51:26;;;;;;;6.47;3.37;;;;;;;16.42;nan;100369.28;4959354;28;20673;-80
2022/10/18 02:53:52;;;;;;;5.13;2.93;;;;;;;16.45;nan;100371.69;4962207;28;20224;-80
2022/10/18 02:56:17;;;;;;;3.87;3.17;;;;;;;16.50;nan;100381.91;4960620;28;20189;-81
2022/10/18 02:58:43;;;;;;;7.37;3.20;;;;;;;16.52;nan;100391.44;4964707;28;20188;-81
2022/10/18 03:01:08;;;;;;;4.67;3.73;;;;;;;16.53;nan;100390.50;4959287;28;20208;-79
2022/10/18 03:03:33;;;;;;;7.23;4.17;;;;;;;16.53;nan;100387.84;4964798;28;20215;-80
2022/10/18 03:05:59;;;;;;;4.90;3.00;;;;;;;16.52;nan;100391.44;4965060;28;20525;-81
2022/10/18 03:08:25;;;;;;;6.63;2.80;;;;;;;16.49;nan;100391.69;4962775;28;20197;-80
2022/10/18 03:10:50;;;;;;;6.33;3.83;;;;;;;16.41;nan;100388.78;4961952;28;20368;-80
2022/10/18 03:13:16;;;;;;;4.47;3.27;;;;;;;16.32;nan;100392.13;4960134;28;20204;-81
2022/10/18 03:15:41;;;;;;;7.70;3.90;;;;;;;16.25;nan;100393.53;4962670;28;20730;-80
2022/10/18 03:18:06;;;;;;;5.20;3.33;;;;;;;16.17;nan;100386.16;4962316;28;20719;-79
2022/10/18 03:20:32;;;;;;;10.90;4.20;;;;;;;16.10;nan;100395.53;4948603;28;20555;-81
2022/10/18 03:22:58;;;;;;;4.50;3.60;;;;;;;16.05;nan;100389.72;4964191;28;20209;-80
2022/10/18 03:25:23;;;;;;;5.63;3.40;;;;;;;16.02;nan;100392.63;4965763;28;20191;-80
2022/10/18 03:27:49;;;;;;;7.33;3.60;;;;;;;15.97;nan;100394.75;4972381;28;20208;-80
2022/10/18 03:30:14;;;;;;;5.43;3.80;;;;;;;15.92;nan;100397.72;4970615;28;20199;-80
2022/10/18 03:32:40;;;;;;;8.80;4.17;;;;;;;15.85;nan;100400.00;4967489;28;20217;-80
2022/10/18 03:35:07;;;;;;;5.30;3.03;;;;;;;15.73;nan;100397.38;4965681;28;20252;-80
2022/10/18 03:37:32;;;;;;;5.38;4.10;;;;;;;15.72;nan;100403.66;4963601;28;20237;-80
2022/10/18 03:39:58;;;;;;;5.40;3.67;;;;;;;15.70;nan;100407.25;4952626;28;20199;-80
2022/10/18 03:42:23;;;;;;;6.57;3.27;;;;;;;15.69;nan;100405.56;4969300;28;20223;-81
2022/10/18 03:44:48;;;;;;;7.13;5.30;;;;;;;15.66;nan;100400.47;4969090;28;20200;-80
2022/10/18 03:47:14;;;;;;;6.07;3.90;;;;;;;15.65;nan;100406.69;4973195;28;20185;-79
2022/10/18 03:49:39;;;;;;;5.40;3.30;;;;;;;15.60;nan;100406.16;4975275;28;20208;-80
2022/10/18 03:52:05;;;;;;;7.73;4.03;;;;;;;15.57;nan;100394.97;4966414;28;20211;-80
2022/10/18 03:54:30;;;;;;;4.40;3.73;;;;;;;15.54;nan;100408.44;4977894;28;20264;-80
2022/10/18 03:56:56;;;;;;;5.10;3.63;;;;;;;15.53;nan;100412.88;4977406;28;20209;-80
2022/10/18 03:59:21;;;;;;;16.73;3.87;;;;;;;15.52;nan;100411.16;4977995;28;20185;-81
2022/10/18 04:01:47;;;;;;;6.50;3.03;;;;;;;15.52;nan;100405.03;4977235;28;20204;-80
2022/10/18 04:04:13;;;;;;;9.73;4.13;;;;;;;15.49;nan;100414.03;4976611;28;20176;-80
2022/10/18 04:06:38;;;;;;;5.93;3.60;;;;;;;15.48;nan;100415.84;4974986;28;20446;-80
2022/10/18 04:09:04;;;;;;;5.80;3.13;;;;;;;15.49;nan;100414.03;4974234;28;20395;-80
2022/10/18 04:11:29;;;;;;;5.70;4.27;;;;;;;15.48;nan;100410.56;4964497;28;20250;-81
2022/10/18 04:13:55;;;;;;;8.10;3.17;;;;;;;15.45;nan;100410.78;4963692;28;20527;-80
2022/10/18 04:16:20;;;;;;;3.70;3.30;;;;;;;15.45;nan;100409.94;4959993;28;20192;-80
2022/10/18 04:18:46;;;;;;;7.73;3.73;;;;;;;15.41;nan;100411.09;4962864;28;20235;-81
2022/10/18 04:21:11;;;;;;;9.00;4.40;;;;;;;15.33;nan;100401.03;4949108;28;20184;-80
2022/10/18 04:23:36;;;;;;;8.40;4.63;;;;;;;15.29;nan;100404.03;4962895;28;20200;-80
2022/10/18 04:26:02;;;;;;;6.43;3.90;;;;;;;15.22;nan;100404.44;4960354;28;20184;-81
2022/10/18 04:28:27;;;;;;;5.40;3.73;;;;;;;15.15;nan;100403.22;4960385;28;20192;-81
2022/10/18 04:30:53;;;;;;;8.97;3.30;;;;;;;15.12;nan;100392.84;4958808;28;20181;-80
2022/10/18 04:33:19;;;;;;;6.50;3.30;;;;;;;15.08;nan;100395.81;4959767;28;20314;-81
2022/10/18 04:35:45;;;;;;;4.22;3.40;;;;;;;15.04;nan;100398.66;4960782;28;20213;-81
2022/10/18 04:38:13;;;;;;;4.40;3.50;;;;;;;15.03;nan;100404.06;4960635;28;20258;-80
2022/10/18 04:40:38;;;;;;;7.63;3.97;;;;;;;15.00;nan;100409.56;4960766;28;20187;-80
2022/10/18 04:43:04;;;;;;;5.00;3.80;;;;;;;14.97;nan;100412.41;4961375;28;20205;-81
2022/10/18 04:45:29;;;;;;;6.70;3.53;;;;;;;14.95;nan;100411.66;4960160;28;20738;-80
2022/10/18 04:47:54;;;;;;;9.87;3.67;;;;;;;14.95;nan;100407.22;4962197;28;20914;-81
2022/10/18 04:50:20;;;;;;;5.10;3.60;;;;;;;14.96;nan;100419.50;4962324;28;20252;-81
2022/10/18 04:52:47;;;;;;;5.57;3.38;;;;;;;14.95;nan;100415.16;4959864;28;20621;-81
2022/10/18 04:55:13;;;;;;;5.27;4.17;;;;;;;14.97;nan;100409.78;4947441;29;20291;-81
2022/10/18 04:57:38;;;;;;;4.97;3.70;;;;;;;14.98;nan;100417.59;4943645;28;20217;-81
2022/10/18 05:00:04;;;;;;;5.00;3.33;;;;;;;15.00;nan;100415.69;4947353;29;20216;-81
2022/10/18 05:02:30;;;;;;;6.05;3.60;;;;;;;15.04;nan;100411.03;4944969;29;20268;-81
2022/10/18 05:04:55;;;;;;;4.20;3.80;;;;;;;15.08;nan;100409.88;4947034;28;20181;-82
2022/10/18 05:07:21;;;;;;;7.30;4.50;;;;;;;15.12;nan;100403.44;4945869;28;20178;-82
2022/10/18 05:09:46;;;;;;;4.57;3.13;;;;;;;15.15;nan;100403.22;4942896;28;20244;-81
2022/10/18 05:12:11;;;;;;;5.70;3.90;;;;;;;15.16;nan;100389.00;4945320;28;20228;-81
2022/10/18 05:14:37;;;;;;;9.57;4.17;;;;;;;15.16;nan;100396.94;4947623;28;20256;-81
2022/10/18 05:17:02;;;;;;;5.43;4.10;;;;;;;15.18;nan;100410.09;4946678;29;20355;-81
2022/10/18 05:19:28;;;;;;;7.30;3.67;;;;;;;15.21;nan;100417.81;4947645;29;20321;-81
2022/10/18 05:21:53;;;;;;;5.80;3.70;;;;;;;15.25;nan;100412.16;4949956;28;20205;-81
2022/10/18 05:24:18;;;;;;;27.27;4.80;;;;;;;15.31;nan;100412.69;4947868;29;20260;-81
2022/10/18 05:27:02;;;;;;;4.63;4.10;;;;;;;15.35;nan;100419.47;4943811;28;20221;-81
2022/10/18 05:29:28;;;;;;;6.40;3.38;;;;;;;15.36;nan;100434.41;4939262;28;20614;-81
2022/10/18 05:31:53;;;;;;;11.37;2.83;;;;;;;15.35;nan;100427.41;4937620;28;20304;-81
2022/10/18 05:34:19;;;;;;;11.53;5.70;;;;;;;15.34;nan;100425.72;4942154;29;20271;-81
2022/10/18 05:36:45;;;;;;;3.83;3.53;;;;;;;15.35;nan;100422.97;4940602;29;20205;-80
2022/10/18 05:39:11;;;;;;;3.05;2.38;;;;;;;15.35;nan;100415.03;4942037;29;20280;-81
2022/10/18 05:41:36;;;;;;;5.60;3.33;;;;;;;15.38;nan;100408.66;4939495;28;20318;-81
2022/10/18 05:44:07;;;;;;;7.93;4.10;;;;;;;15.42;nan;100408.34;4944160;28;20196;-81
2022/10/18 05:46:32;;;;;;;4.10;3.58;;;;;;;15.47;nan;100410.66;4936392;29;20193;-81
2022/10/18 05:48:58;;;;;;;5.97;4.35;;;;;;;15.51;nan;100408.66;4257402;28;10014904;-81
2022/10/18 05:51:23;;;;;;;4.63;4.20;;;;;;;15.54;nan;100411.91;4939234;29;20562;-81
2022/10/18 05:53:49;;;;;;;10.20;4.23;;;;;;;15.60;nan;100418.56;4955266;28;20236;-80
2022/10/18 05:56:14;;;;;;;5.47;4.13;;;;;;;15.62;nan;100421.97;4959889;28;20189;-81
2022/10/18 05:58:41;;;;;;;6.20;3.57;;;;;;;15.65;nan;100413.78;4955979;28;20199;-81
2022/10/18 06:01:07;;;;;;;7.50;3.90;;;;;;;15.67;nan;100418.03;4954036;28;20496;-82
2022/10/18 06:03:33;;;;;;;4.43;4.13;;;;;;;15.70;nan;100407.25;4954009;28;20177;-81
2022/10/18 06:06:04;;;;;;;5.15;3.30;;;;;;;15.74;nan;100404.38;4959124;28;20259;-81
2022/10/18 06:08:29;;;;;;;6.78;5.03;;;;;;;15.79;nan;100410.19;4962165;28;20566;-81
2022/10/18 06:10:55;;;;;;;10.00;6.53;;;;;;;15.83;nan;100409.84;4953142;28;20235;-81
2022/10/18 06:13:20;;;;;;;8.00;5.50;;;;;;;15.88;nan;100418.31;4952119;28;20212;-81
2022/10/18 06:15:46;;;;;;;7.70;6.93;;;;;;;15.94;nan;100417.03;4950780;28;20581;-81
2022/10/18 06:18:11;;;;;;;9.23;6.83;;;;;;;15.99;nan;100420.19;4953477;28;20201;-81
2022/10/18 06:20:36;;;;;;;7.57;6.80;;;;;;;16.05;nan;100424.19;4952561;28;20605;-81
2022/10/18 06:23:02;;;;;;;6.97;4.20;;;;;;;16.09;nan;100421.19;4953552;28;20231;-80
2022/10/18 06:25:27;;;;;;;5.60;4.90;;;;;;;16.10;nan;100420.22;4956968;28;20196;-81
2022/10/18 06:27:53;;;;;;;6.90;4.33;;;;;;;16.15;nan;100422.56;4957804;28;20215;-81
2022/10/18 06:30:19;;;;;;;9.60;5.90;;;;;;;16.20;nan;100430.13;4957703;28;20288;-81
2022/10/18 06:32:44;;;;;;;5.20;4.00;;;;;;;16.25;nan;100435.94;4940263;28;20463;-81
2022/10/18 06:35:09;;;;;;;9.33;4.70;;;;;;;16.28;nan;100435.72;4962606;28;20264;-81
2022/10/18 06:37:36;;;;;;;6.03;5.10;;;;;;;16.33;nan;100441.53;4956572;28;20320;-81
2022/10/18 06:40:03;;;;;;;10.45;5.45;;;;;;;16.38;nan;100450.84;4957965;28;20196;-81
2022/10/18 06:42:28;;;;;;;6.65;4.18;;;;;;;16.43;nan;100445.19;4957182;28;20712;-81
2022/10/18 06:44:54;;;;;;;7.30;5.10;;;;;;;16.48;nan;100440.41;4958447;28;20291;-81
2022/10/18 06:47:19;;;;;;;6.30;4.13;;;;;;;16.55;nan;100448.72;4946859;28;20283;-81
2022/10/18 06:49:44;;;;;;;7.20;4.40;;;;;;;16.66;nan;100448.78;4960212;28;20695;-81
2022/10/18 06:52:10;;;;;;;4.60;4.20;;;;;;;16.78;nan;100449.69;4957331;28;20225;-81
2022/10/18 06:54:35;;;;;;;6.17;4.03;;;;;;;16.98;nan;100456.94;4963319;28;20214;-81
2022/10/18 06:57:01;;;;;;;8.60;5.20;;;;;;;17.15;nan;100460.97;4962202;28;20511;-81
2022/10/18 06:59:27;;;;;;;7.40;4.60;;;;;;;17.35;nan;100467.38;4960861;28;20475;-81
2022/10/18 07:01:53;;;;;;;4.32;3.60;;;;;;;17.57;nan;100463.03;4963574;28;21034;-81
2022/10/18 07:04:18;;;;;;;5.27;3.73;;;;;;;17.77;nan;100464.09;4961426;28;20188;-81
2022/10/18 07:06:43;;;;;;;4.70;3.77;;;;;;;17.96;nan;100474.13;4961706;28;20187;-81
2022/10/18 07:09:09;;;;;;;6.83;3.23;;;;;;;18.13;nan;100469.13;4949468;28;20181;-81
2022/10/18 07:11:34;;;;;;;11.80;8.03;;;;;;;18.30;nan;100473.06;4961135;28;20180;-82
2022/10/18 07:14:02;;;;;;;11.77;7.80;;;;;;;18.47;nan;100470.81;4963470;28;20192;-81
2022/10/18 07:16:28;;;;;;;19.97;8.50;;;;;;;18.62;nan;100474.88;4961395;28;20479;-81
2022/10/18 07:18:53;;;;;;;11.05;7.82;;;;;;;18.76;nan;100479.06;4962425;28;20808;-81
2022/10/18 07:21:23;;;;;;;14.90;9.37;;;;;;;18.87;nan;100479.00;4963026;28;20678;-81
2022/10/18 07:23:49;;;;;;;13.63;9.53;;;;;;;18.98;nan;100465.66;4963439;28;20580;-81
2022/10/18 07:26:26;;;;;;;9.37;6.63;;;;;;;19.08;nan;100471.00;4959556;28;20443;-82
2022/10/18 07:28:56;;;;;;;20.33;6.17;;;;;;;19.20;nan;100479.78;4960015;28;20446;-81
2022/10/18 07:31:22;;;;;;;6.70;5.80;;;;;;;19.28;nan;100482.63;4958943;28;21026;-81
2022/10/18 07:33:48;;;;;;;7.70;6.30;;;;;;;19.38;nan;100477.34;4959346;28;20447;-81
2022/10/18 07:36:13;;;;;;;10.87;6.90;;;;;;;19.46;nan;100477.50;4953620;28;20452;-81
2022/10/18 07:38:39;;;;;;;6.67;6.03;;;;;;;19.53;nan;100473.34;4958869;28;20548;-81
2022/10/18 07:41:07;;;;;;;8.30;5.40;;;;;;;19.61;nan;100473.53;4954835;28;20608;-81
2022/10/18 07:43:34;;;;;;;8.27;5.13;;;;;;;19.69;nan;100475.53;4959721;28;20560;-81
2022/10/18 07:46:01;;;;;;;5.73;4.90;;;;;;;19.76;nan;100476.66;4959912;28;20455;-81
2022/10/18 07:48:27;;;;;;;10.93;6.80;;;;;;;19.85;nan;100483.03;4957828;28;20436;-81
2022/10/18 07:50:53;;;;;;;11.40;7.13;;;;;;;19.95;nan;100478.53;4963064;28;20444;-81
2022/10/18 07:53:18;;;;;;;11.37;7.07;;;;;;;20.07;nan;100477.47;4962757;28;20546;-81
2022/10/18 07:55:44;;;;;;;9.47;5.20;;;;;;;20.20;nan;100477.22;4961681;28;20189;-81
2022/10/18 07:58:10;;;;;;;4.83;4.33;;;;;;;20.34;nan;100478.63;4962587;28;20229;-81
2022/10/18 08:00:35;;;;;;;4.63;4.23;;;;;;;20.51;nan;100485.09;4959212;28;20456;-82
2022/10/18 08:03:01;;;;;;;7.37;3.67;;;;;;;20.67;nan;100482.72;4962407;28;20451;-82
2022/10/18 08:05:27;;;;;;;4.50;3.50;;;;;;;20.86;nan;100479.19;4961932;28;20192;-81
2022/10/18 08:07:53;;;;;;;6.87;4.13;;;;;;;21.04;nan;100471.31;4956414;28;20181;-81
2022/10/18 08:10:20;;;;;;;7.80;4.87;;;;;;;21.27;nan;100470.94;4959764;28;20796;-82
2022/10/18 08:12:45;;;;;;;6.57;5.23;;;;;;;21.52;nan;100475.69;4945260;28;20983;-82
2022/10/18 08:15:11;;;;;;;5.70;5.10;;;;;;;21.79;nan;100480.19;4960965;28;20465;-82
2022/10/18 08:17:36;;;;;;;5.00;3.43;;;;;;;22.16;nan;100473.06;4960146;28;20343;-82
2022/10/18 08:20:03;;;;;;;6.30;4.73;;;;;;;22.62;nan;100473.88;4955527;28;20196;-82
2022/10/18 08:22:29;;;;;;;5.70;3.93;;;;;;;22.78;nan;100476.69;4945289;28;20228;-82
2022/10/18 08:24:54;;;;;;;10.83;4.30;;;;;;;22.69;nan;100470.41;4958383;28;20469;-81
2022/10/18 08:27:19;;;;;;;7.23;3.90;;;;;;;22.59;nan;100474.19;4956018;28;20301;-81
2022/10/18 08:29:45;;;;;;;4.30;3.90;;;;;;;22.47;nan;100474.41;4956808;28;20213;-81
2022/10/18 08:32:11;;;;;;;5.23;4.50;;;;;;;22.62;nan;100477.38;4944444;28;20237;-81
2022/10/18 08:34:37;;;;;;;8.93;5.83;;;;;;;23.23;nan;100478.38;4955828;28;20185;-81
2022/10/18 08:37:03;;;;;;;9.70;4.97;;;;;;;23.84;nan;100461.25;4956394;28;20551;-81
2022/10/18 08:39:28;;;;;;;12.90;5.43;;;;;;;24.61;nan;100454.84;4958025;28;20191;-81
2022/10/18 08:42:15;;;;;;;5.23;3.60;;;;;;;24.91;nan;100461.38;4951472;28;20482;-81
2022/10/18 08:44:45;;;;;;;5.40;3.30;;;;;;;24.90;nan;100468.63;4958492;28;20220;-81
2022/10/18 08:47:15;;;;;;;4.40;3.30;;;;;;;25.21;nan;100470.59;4951586;28;20937;-81
2022/10/18 08:49:48;;;;;;;6.13;2.57;;;;;;;25.52;nan;100485.97;4949591;28;20450;-81
2022/10/18 08:52:32;;;;;;;3.50;3.20;;;;;;;25.49;nan;100489.00;4949118;28;20548;-80
2022/10/18 08:55:07;;;;;;;4.90;2.97;;;;;;;25.59;nan;100485.09;4956121;28;20476;-80
2022/10/18 08:57:33;;;;;;;4.70;2.83;;;;;;;26.30;nan;100468.94;4954340;28;20716;-79
2022/10/18 09:00:00;;;;;;;3.90;2.87;;;;;;;26.86;nan;100466.00;4952995;28;20429;-79
2022/10/18 09:02:34;;;;;;;5.97;3.10;;;;;;;27.36;nan;100472.59;4950960;28;20192;-79
2022/10/18 09:05:24;;;;;;;4.87;2.57;;;;;;;27.72;nan;100467.25;4954421;28;20430;-79
2022/10/18 09:08:17;;;;;;;6.33;2.97;;;;;;;28.01;nan;100470.97;4958704;28;20496;-79
2022/10/18 09:10:48;;;;;;;7.30;3.73;;;;;;;28.20;nan;100469.50;4952485;28;20424;-80
2022/10/18 09:13:14;;;;;;;3.20;2.67;;;;;;;27.98;nan;100471.34;4947028;28;20466;-79
2022/10/18 09:16:02;;;;;;;3.23;2.77;;;;;;;27.28;nan;100470.00;4945654;28;20453;-81
2022/10/18 09:18:27;;;;;;;4.33;3.37;;;;;;;26.49;nan;100490.03;4948262;28;20215;-80
2022/10/18 09:20:58;;;;;;;6.97;5.00;;;;;;;25.83;nan;100492.25;4949187;28;20436;-80
2022/10/18 09:23:43;;;;;;;8.60;7.07;;;;;;;25.29;nan;100485.88;4949979;28;20211;-80
2022/10/18 09:26:32;;;;;;;3.17;2.97;;;;;;;24.70;nan;100486.06;4948670;28;20476;-81
2022/10/18 09:29:09;;;;;;;4.83;2.80;;;;;;;24.22;nan;100490.34;4956307;28;20455;-80
2022/10/18 09:31:37;;;;;;;7.13;3.77;;;;;;;23.92;nan;100486.41;4955113;28;20527;-80
2022/10/18 09:34:47;;;;;;;6.50;4.07;;;;;;;23.81;nan;100484.88;4949436;28;20970;-80
2022/10/18 09:37:16;;;;;;;4.90;3.27;;;;;;;23.67;nan;100490.81;4949318;28;22664;-80
2022/10/18 09:39:44;;;;;;;5.80;3.27;;;;;;;23.54;nan;100485.91;4947389;28;20576;-80
2022/10/18 09:42:25;;;;;;;8.43;5.83;;;;;;;23.33;nan;100488.97;4949587;28;20879;-79
2022/10/18 09:44:58;;;;;;;4.70;3.80;;;;;;;23.15;nan;100483.69;4953479;28;20435;-80
2022/10/18 09:47:31;;;;;;;6.67;3.20;;;;;;;23.10;nan;100477.94;4953733;28;20448;-79
2022/10/18 09:50:01;;;;;;;7.47;3.83;;;;;;;23.07;nan;100480.94;4958652;28;20926;-80
2022/10/18 09:52:55;;;;;;;5.10;3.50;;;;;;;23.17;nan;100479.84;4957610;28;20475;-80
2022/10/18 09:55:30;;;;;;;5.83;5.40;;;;;;;23.30;nan;100484.75;4931154;28;20530;-80
2022/10/18 09:58:01;;;;;;;5.83;5.23;;;;;;;23.44;nan;100486.03;4954822;28;20851;-80
2022/10/18 10:00:50;;;;;;;4.73;4.23;;;;;;;23.59;nan;100480.91;4956664;28;20418;-79
2022/10/18 10:03:15;;;;;;;4.20;3.70;;;;;;;23.68;nan;100487.13;4952003;28;20446;-79
2022/10/18 10:05:42;;;;;;;4.00;3.50;;;;;;;23.75;nan;100480.16;4958277;28;20823;-79
2022/10/18 10:08:07;;;;;;;6.87;4.20;;;;;;;23.79;nan;100485.06;4957573;28;20496;-79
2022/10/18 10:10:37;;;;;;;6.77;2.93;;;;;;;23.76;nan;100482.69;4943986;28;20968;-80
2022/10/18 10:13:14;;;;;;;4.40;2.90;;;;;;;23.73;nan;100476.78;4953544;28;20303;-79
2022/10/18 10:15:50;;;;;;;3.17;2.70;;;;;;;23.67;nan;100474.72;4957568;28;20430;-80
2022/10/18 10:18:22;;;;;;;5.10;3.37;;;;;;;23.66;nan;100479.25;4962859;28;20467;-79
2022/10/18 10:20:51;;;;;;;5.10;3.23;;;;;;;23.77;nan;100483.53;4961831;28;20440;-80
2022/10/18 10:23:35;;;;;;;3.40;2.50;;;;;;;23.88;nan;100485.91;4961756;28;20458;-79
2022/10/18 10:26:06;;;;;;;4.67;3.23;;;;;;;24.05;nan;100487.63;4967756;28;20448;-80
2022/10/18 10:28:45;;;;;;;3.50;3.03;;;;;;;24.24;nan;100482.97;4965847;28;20914;-79
2022/10/18 10:31:29;;;;;;;3.93;3.43;;;;;;;24.38;nan;100471.59;4961814;28;20795;-81
2022/10/18 10:34:18;;;;;;;5.00;3.70;;;;;;;24.44;nan;100460.22;4957081;28;20436;-81
2022/10/18 10:36:49;;;;;;;5.20;3.23;;;;;;;24.53;nan;100454.84;4957409;28;20461;-81
2022/10/18 10:39:20;;;;;;;3.37;3.07;;;;;;;24.55;nan;100464.44;4955126;28;20917;-80
2022/10/18 10:41:50;;;;;;;5.13;3.90;;;;;;;24.50;nan;100456.88;4957116;28;20490;-79
2022/10/18 10:44:22;;;;;;;4.50;3.23;;;;;;;24.51;nan;100469.28;4956959;28;21226;-80
2022/10/18 10:46:49;;;;;;;4.27;3.97;;;;;;;24.57;nan;100464.25;4963177;28;20434;-80
2022/10/18 10:49:20;;;;;;;3.90;3.40;;;;;;;24.57;nan;100467.75;4966926;28;20563;-79
2022/10/18 10:51:54;;;;;;;4.57;3.57;;;;;;;24.56;nan;100471.47;4967046;28;20433;-80
2022/10/18 10:54:24;;;;;;;3.23;2.73;;;;;;;24.58;nan;100468.63;4964980;23;20491;-76
2022/10/18 10:57:04;;;;;;;6.27;4.63;;;;;;;24.58;nan;100466.78;4923437;28;20687;-73
2022/10/18 10:59:37;;;;;;;3.43;3.13;;;;;;;24.56;nan;100460.72;4931724;28;21042;-74
2022/10/18 11:02:19;;;;;;;4.67;3.00;;;;;;;24.59;nan;100464.94;4939104;28;20634;-74
2022/10/18 11:04:53;;;;;;;3.50;3.20;;;;;;;24.58;nan;100469.47;4935802;28;20828;-74
2022/10/18 11:07:32;;;;;;;6.10;4.17;;;;;;;24.58;nan;100479.38;4934114;28;20472;-74
2022/10/18 11:10:10;;;;;;;3.70;3.20;;;;;;;24.49;nan;100471.31;4935935;28;21081;-74
2022/10/18 11:12:40;;;;;;;3.67;2.80;;;;;;;24.49;nan;100468.63;4939844;28;21183;-74
2022/10/18 11:15:17;;;;;;;4.23;3.30;;;;;;;24.42;nan;100464.06;4940865;28;20472;-75
2022/10/18 11:18:01;;;;;;;4.63;3.80;;;;;;;24.31;nan;100467.06;4938529;29;20476;-74
2022/10/18 11:20:35;;;;;;;3.80;2.70;;;;;;;24.26;nan;100468.38;4937757;29;20546;-74
2022/10/18 11:23:06;;;;;;;3.27;2.97;;;;;;;24.30;nan;100463.50;4938233;29;20418;-74
2022/10/18 11:25:47;;;;;;;3.20;2.90;;;;;;;24.32;nan;100469.56;4936122;28;21071;-74
2022/10/18 11:28:31;;;;;;;3.40;2.70;;;;;;;24.36;nan;100459.31;4934627;28;20415;-74
2022/10/18 11:31:13;;;;;;;4.20;2.60;;;;;;;24.36;nan;100456.63;4937380;29;20554;-73
2022/10/18 11:33:45;;;;;;;4.07;2.20;;;;;;;24.38;nan;100460.84;4940099;28;20415;-73
2022/10/18 11:36:19;;;;;;;3.43;2.40;;;;;;;24.41;nan;100456.97;4936092;29;20533;-73
2022/10/18 11:39:14;;;;;;;4.60;2.87;;;;;;;24.49;nan;100452.50;4937397;29;20476;-73
2022/10/18 11:41:52;;;;;;;3.90;2.73;;;;;;;24.61;nan;100444.13;4938099;29;20467;-74
2022/10/18 11:44:36;;;;;;;4.40;3.07;;;;;;;24.69;nan;100438.75;4936100;29;20696;-73
2022/10/18 11:47:09;;;;;;;3.13;2.50;;;;;;;24.73;nan;100432.88;4937252;29;20611;-73
2022/10/18 11:50:11;;;;;;;4.87;2.60;;;;;;;24.75;nan;100435.38;4932738;28;22648;-73
2022/10/18 11:53:18;;;;;;;4.20;2.73;;;;;;;24.82;nan;100427.47;4936715;29;20447;-75
2022/10/18 11:55:59;;;;;;;4.27;3.03;;;;;;;24.83;nan;100424.59;4859188;29;20506;-72